Fairchild Air Force Base
KSKA : rendu visible

Aérodrome :











RETROUVEZ-NOUS SUR...

 
LOGIN :

S'inscrire | Disclaimer

   EN    FR    IT 

 









Légende :    VFR   VFR Marginal   IFR   IFR Intensif   IFR Très Intensif
Visi : 
Plafond : 
>= 8 km
>= 3000ft
5 à 8 km
1000 à 3000 ft
1500m à 5 km
500 à 1000 ft
800 à 1500m
200 à 500 ft
< 800m
< 200 ft
Symboles :   Orages  Brouillard  Fortes neiges  Fortes précipitations  Vent > 20 kt






- Altitude de l'aérodrome : 2461 ft


KSKA - Fairchild Air Force Base

DERNIER METAR :
  • 282258Z 01003KT 10SM CLR 08/M02 A3030 RMK AO2A SLP278 T00781017 $

METARs EXPIRÉS :
  • 282158Z 00000KT 10SM CLR 08/M01 A3028 RMK AO2A SLP271 T00811007 $
  • 282058Z 00000KT 10SM CLR 08/00 A3027 RMK AO2A SLP267 T00750000 52015 $

TAF TAF KSKA
Valide du 28 à 19h jusqu'au 30 à 01h UTC


281900Z 2819/3001 20009KT 9999 SCT050 SCT200 QNH3023INS
BECMG 2902/2903 05006KT 9000 BR SCT005 BKN020 620202 QNH3037INS
BECMG 2911/2912 04009KT 9999 NSW SCT015 OVC035 620354 QNH3024INS TX06/2821Z TNM01/2908Z
FIR KZSE / Amérique du Nord



MET'MAP, la Météo Aéronautique d'un coup d'oeil ! - Copyright ORBIFLY Décembre 2007 - Disclaimer

ORBIFLY MET'MAP TEAM :

Programmation & Développement : Alexandra Zaïnal
Sur une idée originale de : Baudouin d'Aumeries
Assistance à la programmation : Marc-Olivier Méhu
Soutien technique & logistique : Manuel Goepfert

Contact : metmap@orbifly.com




SOURCES & CREDITS :

   NOAA       Earth
Advisory